sensor_id;sensor_type;location;lat;lon;timestamp;P1;durP1;ratioP1;P2;durP2;ratioP2
68680;SDS011;55836;49.858;6.756;2023-05-10T00:00:27;3.77;;;2.60;;
68680;SDS011;55836;49.858;6.756;2023-05-10T00:03:08;2.90;;;2.57;;
68680;SDS011;55836;49.858;6.756;2023-05-10T00:05:46;3.77;;;2.90;;
68680;SDS011;55836;49.858;6.756;2023-05-10T00:08:14;5.53;;;3.00;;
68680;SDS011;55836;49.858;6.756;2023-05-10T00:10:46;2.93;;;2.57;;
68680;SDS011;55836;49.858;6.756;2023-05-10T00:16:30;4.07;;;2.87;;
68680;SDS011;55836;49.858;6.756;2023-05-10T00:22:18;5.43;;;3.23;;
68680;SDS011;55836;49.858;6.756;2023-05-10T00:24:47;3.30;;;3.00;;
68680;SDS011;55836;49.858;6.756;2023-05-10T00:27:13;4.80;;;3.57;;
68680;SDS011;55836;49.858;6.756;2023-05-10T00:29:49;3.70;;;3.40;;
68680;SDS011;55836;49.858;6.756;2023-05-10T00:32:15;4.30;;;3.90;;
68680;SDS011;55836;49.858;6.756;2023-05-10T00:40:51;4.03;;;3.63;;
68680;SDS011;55836;49.858;6.756;2023-05-10T00:43:35;4.30;;;3.83;;
68680;SDS011;55836;49.858;6.756;2023-05-10T00:46:01;4.53;;;3.67;;
68680;SDS011;55836;49.858;6.756;2023-05-10T00:54:51;5.30;;;4.80;;
68680;SDS011;55836;49.858;6.756;2023-05-10T00:57:17;6.07;;;4.40;;
68680;SDS011;55836;49.858;6.756;2023-05-10T00:59:50;5.10;;;4.63;;
68680;SDS011;55836;49.858;6.756;2023-05-10T01:02:22;7.77;;;4.87;;
68680;SDS011;55836;49.858;6.756;2023-05-10T01:04:57;5.20;;;4.70;;
68680;SDS011;55836;49.858;6.756;2023-05-10T01:07:23;6.03;;;4.43;;
68680;SDS011;55836;49.858;6.756;2023-05-10T01:09:55;7.20;;;4.67;;
68680;SDS011;55836;49.858;6.756;2023-05-10T01:12:21;5.00;;;4.50;;
68680;SDS011;55836;49.858;6.756;2023-05-10T01:18:10;6.57;;;5.00;;
68680;SDS011;55836;49.858;6.756;2023-05-10T01:37:15;8.07;;;5.17;;
68680;SDS011;55836;49.858;6.756;2023-05-10T01:48:57;6.57;;;5.83;;
68680;SDS011;55836;49.858;6.756;2023-05-10T01:51:26;8.90;;;6.23;;
68680;SDS011;55836;49.858;6.756;2023-05-10T01:54:05;7.43;;;6.10;;
68680;SDS011;55836;49.858;6.756;2023-05-10T01:56:43;5.80;;;5.30;;
68680;SDS011;55836;49.858;6.756;2023-05-10T02:02:13;7.33;;;5.83;;
68680;SDS011;55836;49.858;6.756;2023-05-10T02:04:49;6.57;;;5.77;;
68680;SDS011;55836;49.858;6.756;2023-05-10T02:11:00;9.20;;;5.87;;
68680;SDS011;55836;49.858;6.756;2023-05-10T02:13:29;7.87;;;6.00;;
68680;SDS011;55836;49.858;6.756;2023-05-10T02:16:03;7.70;;;6.33;;
68680;SDS011;55836;49.858;6.756;2023-05-10T02:18:39;6.67;;;6.00;;
68680;SDS011;55836;49.858;6.756;2023-05-10T02:24:01;6.70;;;5.70;;
68680;SDS011;55836;49.858;6.756;2023-05-10T02:26:40;7.67;;;6.23;;
68680;SDS011;55836;49.858;6.756;2023-05-10T02:31:58;7.73;;;6.23;;
68680;SDS011;55836;49.858;6.756;2023-05-10T02:34:30;6.87;;;6.13;;
68680;SDS011;55836;49.858;6.756;2023-05-10T02:40:06;9.20;;;6.30;;
68680;SDS011;55836;49.858;6.756;2023-05-10T02:42:38;7.83;;;5.83;;
68680;SDS011;55836;49.858;6.756;2023-05-10T02:48:10;10.13;;;6.97;;
68680;SDS011;55836;49.858;6.756;2023-05-10T02:50:43;7.20;;;6.50;;
68680;SDS011;55836;49.858;6.756;2023-05-10T02:53:20;8.53;;;6.20;;
68680;SDS011;55836;49.858;6.756;2023-05-10T02:55:52;9.20;;;6.80;;
68680;SDS011;55836;49.858;6.756;2023-05-10T02:58:32;7.33;;;6.43;;
68680;SDS011;55836;49.858;6.756;2023-05-10T03:01:10;9.53;;;6.90;;
68680;SDS011;55836;49.858;6.756;2023-05-10T03:04:00;7.80;;;6.87;;
68680;SDS011;55836;49.858;6.756;2023-05-10T03:09:17;8.33;;;6.70;;
68680;SDS011;55836;49.858;6.756;2023-05-10T03:19:43;9.43;;;5.77;;
68680;SDS011;55836;49.858;6.756;2023-05-10T03:22:17;9.13;;;6.23;;
68680;SDS011;55836;49.858;6.756;2023-05-10T03:24:53;9.80;;;5.90;;
68680;SDS011;55836;49.858;6.756;2023-05-10T03:28:15;8.93;;;5.77;;
68680;SDS011;55836;49.858;6.756;2023-05-10T03:31:12;8.70;;;5.20;;
68680;SDS011;55836;49.858;6.756;2023-05-10T03:33:56;6.73;;;5.30;;
68680;SDS011;55836;49.858;6.756;2023-05-10T03:36:26;6.50;;;5.10;;
68680;SDS011;55836;49.858;6.756;2023-05-10T03:42:01;9.03;;;5.73;;
68680;SDS011;55836;49.858;6.756;2023-05-10T03:44:35;7.00;;;5.70;;
68680;SDS011;55836;49.858;6.756;2023-05-10T03:47:02;9.97;;;5.90;;
68680;SDS011;55836;49.858;6.756;2023-05-10T03:52:28;9.07;;;5.63;;
68680;SDS011;55836;49.858;6.756;2023-05-10T03:54:54;10.53;;;5.00;;
68680;SDS011;55836;49.858;6.756;2023-05-10T04:00:48;9.80;;;5.77;;
68680;SDS011;55836;49.858;6.756;2023-05-10T04:03:17;6.47;;;5.40;;
68680;SDS011;55836;49.858;6.756;2023-05-10T04:05:43;8.37;;;5.40;;
68680;SDS011;55836;49.858;6.756;2023-05-10T04:11:05;7.87;;;5.13;;
68680;SDS011;55836;49.858;6.756;2023-05-10T04:13:41;8.13;;;5.00;;
68680;SDS011;55836;49.858;6.756;2023-05-10T04:16:10;9.07;;;5.97;;
68680;SDS011;55836;49.858;6.756;2023-05-10T04:21:53;7.53;;;4.53;;
68680;SDS011;55836;49.858;6.756;2023-05-10T04:24:19;10.43;;;5.47;;
68680;SDS011;55836;49.858;6.756;2023-05-10T04:29:44;7.80;;;6.00;;
68680;SDS011;55836;49.858;6.756;2023-05-10T04:32:10;11.97;;;6.87;;
68680;SDS011;55836;49.858;6.756;2023-05-10T04:37:53;8.10;;;6.30;;
68680;SDS011;55836;49.858;6.756;2023-05-10T04:40:20;8.53;;;6.73;;
68680;SDS011;55836;49.858;6.756;2023-05-10T04:42:52;9.20;;;6.33;;
68680;SDS011;55836;49.858;6.756;2023-05-10T04:45:36;7.10;;;6.03;;
68680;SDS011;55836;49.858;6.756;2023-05-10T04:48:05;8.90;;;6.47;;
68680;SDS011;55836;49.858;6.756;2023-05-10T04:50:31;9.00;;;6.90;;
68680;SDS011;55836;49.858;6.756;2023-05-10T04:52:57;10.63;;;7.47;;
68680;SDS011;55836;49.858;6.756;2023-05-10T04:55:23;9.37;;;7.73;;
68680;SDS011;55836;49.858;6.756;2023-05-10T04:57:52;10.07;;;6.47;;
68680;SDS011;55836;49.858;6.756;2023-05-10T05:00:20;14.13;;;8.87;;
68680;SDS011;55836;49.858;6.756;2023-05-10T05:05:41;9.77;;;7.30;;
68680;SDS011;55836;49.858;6.756;2023-05-10T05:08:07;10.07;;;8.03;;
68680;SDS011;55836;49.858;6.756;2023-05-10T05:14:01;11.67;;;7.80;;
68680;SDS011;55836;49.858;6.756;2023-05-10T05:19:36;11.83;;;7.83;;
68680;SDS011;55836;49.858;6.756;2023-05-10T05:25:12;8.90;;;7.47;;
68680;SDS011;55836;49.858;6.756;2023-05-10T05:27:38;11.43;;;8.87;;
68680;SDS011;55836;49.858;6.756;2023-05-10T05:30:10;9.33;;;7.57;;
68680;SDS011;55836;49.858;6.756;2023-05-10T05:32:38;10.10;;;7.93;;
68680;SDS011;55836;49.858;6.756;2023-05-10T05:37:57;7.43;;;6.50;;
68680;SDS011;55836;49.858;6.756;2023-05-10T05:40:24;6.57;;;5.83;;
68680;SDS011;55836;49.858;6.756;2023-05-10T05:42:50;6.27;;;5.60;;
68680;SDS011;55836;49.858;6.756;2023-05-10T05:45:31;7.17;;;5.60;;
68680;SDS011;55836;49.858;6.756;2023-05-10T05:48:00;6.97;;;4.60;;
68680;SDS011;55836;49.858;6.756;2023-05-10T05:50:32;5.30;;;4.43;;
68680;SDS011;55836;49.858;6.756;2023-05-10T05:52:58;5.10;;;4.53;;
68680;SDS011;55836;49.858;6.756;2023-05-10T05:55:30;5.63;;;4.43;;
68680;SDS011;55836;49.858;6.756;2023-05-10T05:58:02;4.43;;;4.03;;
68680;SDS011;55836;49.858;6.756;2023-05-10T06:00:28;5.83;;;4.13;;
68680;SDS011;55836;49.858;6.756;2023-05-10T06:03:01;6.87;;;3.60;;
68680;SDS011;55836;49.858;6.756;2023-05-10T06:05:33;5.37;;;3.37;;
68680;SDS011;55836;49.858;6.756;2023-05-10T06:08:08;5.23;;;2.80;;
68680;SDS011;55836;49.858;6.756;2023-05-10T06:10:34;2.80;;;2.60;;
68680;SDS011;55836;49.858;6.756;2023-05-10T06:13:00;5.50;;;2.40;;
68680;SDS011;55836;49.858;6.756;2023-05-10T06:15:39;3.33;;;2.17;;
68680;SDS011;55836;49.858;6.756;2023-05-10T06:18:11;4.97;;;2.03;;
68680;SDS011;55836;49.858;6.756;2023-05-10T06:20:37;2.03;;;1.83;;
68680;SDS011;55836;49.858;6.756;2023-05-10T06:23:06;3.23;;;1.50;;
68680;SDS011;55836;49.858;6.756;2023-05-10T06:25:32;1.40;;;1.30;;
68680;SDS011;55836;49.858;6.756;2023-05-10T06:27:58;2.17;;;1.63;;
68680;SDS011;55836;49.858;6.756;2023-05-10T06:30:25;2.70;;;1.70;;
68680;SDS011;55836;49.858;6.756;2023-05-10T06:33:12;3.87;;;1.83;;
68680;SDS011;55836;49.858;6.756;2023-05-10T06:35:44;4.57;;;1.67;;
68680;SDS011;55836;49.858;6.756;2023-05-10T06:38:17;1.50;;;1.30;;
68680;SDS011;55836;49.858;6.756;2023-05-10T06:40:43;6.77;;;1.50;;
68680;SDS011;55836;49.858;6.756;2023-05-10T06:43:10;4.73;;;1.70;;
68680;SDS011;55836;49.858;6.756;2023-05-10T06:45:42;3.73;;;1.30;;
68680;SDS011;55836;49.858;6.756;2023-05-10T06:48:13;2.23;;;1.30;;
68680;SDS011;55836;49.858;6.756;2023-05-10T06:50:39;3.67;;;1.40;;
68680;SDS011;55836;49.858;6.756;2023-05-10T06:53:08;1.20;;;1.10;;
68680;SDS011;55836;49.858;6.756;2023-05-10T06:55:37;1.80;;;0.97;;
68680;SDS011;55836;49.858;6.756;2023-05-10T06:58:09;2.70;;;1.10;;
68680;SDS011;55836;49.858;6.756;2023-05-10T07:00:35;2.13;;;1.20;;
68680;SDS011;55836;49.858;6.756;2023-05-10T07:03:08;3.40;;;1.00;;
68680;SDS011;55836;49.858;6.756;2023-05-10T07:05:40;1.53;;;0.93;;
68680;SDS011;55836;49.858;6.756;2023-05-10T07:11:03;2.10;;;1.03;;
68680;SDS011;55836;49.858;6.756;2023-05-10T07:13:32;2.63;;;1.20;;
68680;SDS011;55836;49.858;6.756;2023-05-10T07:15:59;0.93;;;0.90;;
68680;SDS011;55836;49.858;6.756;2023-05-10T07:18:26;1.37;;;1.00;;
68680;SDS011;55836;49.858;6.756;2023-05-10T07:21:08;2.40;;;1.07;;
68680;SDS011;55836;49.858;6.756;2023-05-10T07:23:40;1.90;;;1.20;;
68680;SDS011;55836;49.858;6.756;2023-05-10T07:29:16;3.90;;;0.90;;
68680;SDS011;55836;49.858;6.756;2023-05-10T07:31:48;2.87;;;0.90;;
68680;SDS011;55836;49.858;6.756;2023-05-10T07:34:14;2.80;;;1.20;;
68680;SDS011;55836;49.858;6.756;2023-05-10T07:36:40;4.00;;;1.20;;
68680;SDS011;55836;49.858;6.756;2023-05-10T07:39:06;3.87;;;0.90;;
68680;SDS011;55836;49.858;6.756;2023-05-10T07:41:42;1.23;;;1.10;;
68680;SDS011;55836;49.858;6.756;2023-05-10T07:47:16;1.83;;;1.07;;
68680;SDS011;55836;49.858;6.756;2023-05-10T07:49:49;2.30;;;1.03;;
68680;SDS011;55836;49.858;6.756;2023-05-10T07:52:21;1.70;;;1.13;;
68680;SDS011;55836;49.858;6.756;2023-05-10T07:57:41;2.07;;;1.30;;
68680;SDS011;55836;49.858;6.756;2023-05-10T08:00:07;2.77;;;1.13;;
68680;SDS011;55836;49.858;6.756;2023-05-10T08:02:40;1.83;;;0.90;;
68680;SDS011;55836;49.858;6.756;2023-05-10T08:05:06;2.03;;;0.90;;
68680;SDS011;55836;49.858;6.756;2023-05-10T08:07:38;1.10;;;1.00;;
68680;SDS011;55836;49.858;6.756;2023-05-10T08:10:11;1.47;;;0.90;;
68680;SDS011;55836;49.858;6.756;2023-05-10T08:12:37;0.87;;;0.87;;
68680;SDS011;55836;49.858;6.756;2023-05-10T08:15:12;1.53;;;1.30;;
68680;SDS011;55836;49.858;6.756;2023-05-10T08:17:38;4.40;;;1.50;;
68680;SDS011;55836;49.858;6.756;2023-05-10T08:20:10;2.93;;;1.30;;
68680;SDS011;55836;49.858;6.756;2023-05-10T08:22:56;3.70;;;2.17;;
68680;SDS011;55836;49.858;6.756;2023-05-10T08:25:28;4.80;;;2.03;;
68680;SDS011;55836;49.858;6.756;2023-05-10T08:28:13;2.57;;;1.00;;
68680;SDS011;55836;49.858;6.756;2023-05-10T08:30:49;1.63;;;0.93;;
68680;SDS011;55836;49.858;6.756;2023-05-10T08:33:21;1.23;;;0.83;;
68680;SDS011;55836;49.858;6.756;2023-05-10T08:35:53;1.87;;;1.07;;
68680;SDS011;55836;49.858;6.756;2023-05-10T08:38:25;1.23;;;0.90;;
68680;SDS011;55836;49.858;6.756;2023-05-10T08:40:54;4.20;;;1.87;;
68680;SDS011;55836;49.858;6.756;2023-05-10T08:43:26;5.40;;;2.43;;
68680;SDS011;55836;49.858;6.756;2023-05-10T08:46:02;5.23;;;2.03;;
68680;SDS011;55836;49.858;6.756;2023-05-10T08:48:51;2.20;;;1.67;;
68680;SDS011;55836;49.858;6.756;2023-05-10T08:51:38;5.93;;;1.90;;
68680;SDS011;55836;49.858;6.756;2023-05-10T08:54:11;4.87;;;2.70;;
68680;SDS011;55836;49.858;6.756;2023-05-10T08:56:44;4.93;;;2.20;;
68680;SDS011;55836;49.858;6.756;2023-05-10T08:59:16;4.80;;;2.70;;
68680;SDS011;55836;49.858;6.756;2023-05-10T09:01:43;3.13;;;1.70;;
68680;SDS011;55836;49.858;6.756;2023-05-10T09:04:16;2.50;;;1.27;;
68680;SDS011;55836;49.858;6.756;2023-05-10T09:06:42;2.63;;;2.20;;
68680;SDS011;55836;49.858;6.756;2023-05-10T09:09:32;2.10;;;1.90;;
68680;SDS011;55836;49.858;6.756;2023-05-10T09:11:59;3.43;;;1.97;;
68680;SDS011;55836;49.858;6.756;2023-05-10T09:14:25;3.07;;;1.80;;
68680;SDS011;55836;49.858;6.756;2023-05-10T09:16:52;3.80;;;1.60;;
68680;SDS011;55836;49.858;6.756;2023-05-10T09:19:27;4.07;;;2.30;;
68680;SDS011;55836;49.858;6.756;2023-05-10T09:21:59;3.63;;;1.50;;
68680;SDS011;55836;49.858;6.756;2023-05-10T09:24:27;2.03;;;1.23;;
68680;SDS011;55836;49.858;6.756;2023-05-10T09:27:01;9.27;;;1.50;;
68680;SDS011;55836;49.858;6.756;2023-05-10T09:29:41;1.43;;;1.23;;
68680;SDS011;55836;49.858;6.756;2023-05-10T09:32:22;1.40;;;1.10;;
68680;SDS011;55836;49.858;6.756;2023-05-10T09:35:14;2.30;;;1.07;;
68680;SDS011;55836;49.858;6.756;2023-05-10T09:37:50;1.57;;;1.23;;
68680;SDS011;55836;49.858;6.756;2023-05-10T09:40:31;1.73;;;1.20;;
68680;SDS011;55836;49.858;6.756;2023-05-10T09:45:31;2.27;;;1.10;;
68680;SDS011;55836;49.858;6.756;2023-05-10T09:47:58;1.87;;;1.23;;
68680;SDS011;55836;49.858;6.756;2023-05-10T09:50:24;1.30;;;1.20;;
68680;SDS011;55836;49.858;6.756;2023-05-10T09:53:04;2.00;;;1.23;;
68680;SDS011;55836;49.858;6.756;2023-05-10T09:55:48;1.27;;;1.17;;
68680;SDS011;55836;49.858;6.756;2023-05-10T09:58:31;2.93;;;1.40;;
68680;SDS011;55836;49.858;6.756;2023-05-10T10:01:03;1.57;;;1.27;;
68680;SDS011;55836;49.858;6.756;2023-05-10T10:03:44;2.87;;;1.27;;
68680;SDS011;55836;49.858;6.756;2023-05-10T10:09:35;1.03;;;0.93;;
68680;SDS011;55836;49.858;6.756;2023-05-10T10:12:07;1.17;;;1.17;;
68680;SDS011;55836;49.858;6.756;2023-05-10T10:14:39;1.97;;;1.30;;
68680;SDS011;55836;49.858;6.756;2023-05-10T10:17:05;1.50;;;1.40;;
68680;SDS011;55836;49.858;6.756;2023-05-10T10:19:37;1.57;;;1.47;;
68680;SDS011;55836;49.858;6.756;2023-05-10T10:22:04;3.30;;;1.70;;
68680;SDS011;55836;49.858;6.756;2023-05-10T10:24:33;2.63;;;2.20;;
68680;SDS011;55836;49.858;6.756;2023-05-10T10:27:04;4.40;;;1.80;;
68680;SDS011;55836;49.858;6.756;2023-05-10T10:32:38;2.53;;;1.90;;
68680;SDS011;55836;49.858;6.756;2023-05-10T10:35:34;4.70;;;3.83;;
68680;SDS011;55836;49.858;6.756;2023-05-10T10:38:07;2.63;;;2.43;;
68680;SDS011;55836;49.858;6.756;2023-05-10T10:40:43;3.17;;;2.33;;
68680;SDS011;55836;49.858;6.756;2023-05-10T10:43:30;2.63;;;2.43;;
68680;SDS011;55836;49.858;6.756;2023-05-10T10:49:14;2.40;;;2.20;;
68680;SDS011;55836;49.858;6.756;2023-05-10T10:52:12;3.83;;;2.47;;
68680;SDS011;55836;49.858;6.756;2023-05-10T10:54:37;3.87;;;2.60;;
68680;SDS011;55836;49.858;6.756;2023-05-10T11:03:05;5.97;;;2.50;;
68680;SDS011;55836;49.858;6.756;2023-05-10T11:05:41;4.97;;;2.23;;
68680;SDS011;55836;49.858;6.756;2023-05-10T11:11:07;6.93;;;3.00;;
68680;SDS011;55836;49.858;6.756;2023-05-10T11:13:43;4.80;;;2.77;;
68680;SDS011;55836;49.858;6.756;2023-05-10T11:21:30;2.83;;;2.30;;
68680;SDS011;55836;49.858;6.756;2023-05-10T11:24:12;3.63;;;2.53;;
68680;SDS011;55836;49.858;6.756;2023-05-10T11:29:51;7.47;;;2.40;;
68680;SDS011;55836;49.858;6.756;2023-05-10T11:32:23;4.23;;;2.27;;
68680;SDS011;55836;49.858;6.756;2023-05-10T11:34:49;6.20;;;2.33;;
68680;SDS011;55836;49.858;6.756;2023-05-10T11:37:18;4.07;;;2.17;;
68680;SDS011;55836;49.858;6.756;2023-05-10T11:39:50;4.30;;;2.30;;
68680;SDS011;55836;49.858;6.756;2023-05-10T11:42:22;6.47;;;2.17;;
68680;SDS011;55836;49.858;6.756;2023-05-10T11:44:54;2.87;;;2.43;;
68680;SDS011;55836;49.858;6.756;2023-05-10T11:47:35;3.37;;;1.90;;
68680;SDS011;55836;49.858;6.756;2023-05-10T11:52:51;6.37;;;2.73;;
68680;SDS011;55836;49.858;6.756;2023-05-10T11:55:18;2.73;;;1.80;;
68680;SDS011;55836;49.858;6.756;2023-05-10T11:57:44;4.57;;;2.10;;
68680;SDS011;55836;49.858;6.756;2023-05-10T12:00:11;3.77;;;2.17;;
68680;SDS011;55836;49.858;6.756;2023-05-10T12:05:42;4.50;;;1.80;;
68680;SDS011;55836;49.858;6.756;2023-05-10T12:11:16;5.03;;;2.47;;
68680;SDS011;55836;49.858;6.756;2023-05-10T12:13:43;7.27;;;2.70;;
68680;SDS011;55836;49.858;6.756;2023-05-10T12:16:33;4.43;;;1.67;;
68680;SDS011;55836;49.858;6.756;2023-05-10T12:22:38;3.77;;;2.00;;
68680;SDS011;55836;49.858;6.756;2023-05-10T12:25:10;8.30;;;1.90;;
68680;SDS011;55836;49.858;6.756;2023-05-10T12:27:54;3.07;;;1.97;;
68680;SDS011;55836;49.858;6.756;2023-05-10T12:30:24;5.37;;;2.00;;
68680;SDS011;55836;49.858;6.756;2023-05-10T12:33:01;4.67;;;2.20;;
68680;SDS011;55836;49.858;6.756;2023-05-10T12:40:50;3.13;;;1.70;;
68680;SDS011;55836;49.858;6.756;2023-05-10T12:43:19;2.30;;;1.50;;
68680;SDS011;55836;49.858;6.756;2023-05-10T12:45:45;3.37;;;1.50;;
68680;SDS011;55836;49.858;6.756;2023-05-10T12:48:19;3.00;;;1.43;;
68680;SDS011;55836;49.858;6.756;2023-05-10T12:57:06;1.13;;;1.03;;
68680;SDS011;55836;49.858;6.756;2023-05-10T12:59:47;2.13;;;1.40;;
68680;SDS011;55836;49.858;6.756;2023-05-10T13:02:13;1.73;;;1.20;;
68680;SDS011;55836;49.858;6.756;2023-05-10T13:05:09;3.53;;;1.63;;
68680;SDS011;55836;49.858;6.756;2023-05-10T13:10:22;4.30;;;1.30;;
68680;SDS011;55836;49.858;6.756;2023-05-10T13:18:00;3.47;;;1.50;;
68680;SDS011;55836;49.858;6.756;2023-05-10T13:20:26;3.40;;;1.80;;
68680;SDS011;55836;49.858;6.756;2023-05-10T13:22:52;3.60;;;1.70;;
68680;SDS011;55836;49.858;6.756;2023-05-10T13:25:19;4.37;;;1.77;;
68680;SDS011;55836;49.858;6.756;2023-05-10T13:27:45;3.87;;;1.40;;
68680;SDS011;55836;49.858;6.756;2023-05-10T13:30:11;5.67;;;1.80;;
68680;SDS011;55836;49.858;6.756;2023-05-10T13:32:37;2.33;;;1.30;;
68680;SDS011;55836;49.858;6.756;2023-05-10T13:35:04;5.53;;;1.80;;
68680;SDS011;55836;49.858;6.756;2023-05-10T13:37:30;4.43;;;1.47;;
68680;SDS011;55836;49.858;6.756;2023-05-10T13:39:57;4.80;;;1.40;;
68680;SDS011;55836;49.858;6.756;2023-05-10T13:42:23;3.47;;;1.60;;
68680;SDS011;55836;49.858;6.756;2023-05-10T13:44:49;3.77;;;1.60;;
68680;SDS011;55836;49.858;6.756;2023-05-10T13:47:15;6.13;;;1.77;;
68680;SDS011;55836;49.858;6.756;2023-05-10T13:49:41;4.13;;;1.80;;
68680;SDS011;55836;49.858;6.756;2023-05-10T13:52:07;4.93;;;1.40;;
68680;SDS011;55836;49.858;6.756;2023-05-10T13:54:35;5.77;;;1.57;;
68680;SDS011;55836;49.858;6.756;2023-05-10T13:57:01;3.87;;;1.90;;
68680;SDS011;55836;49.858;6.756;2023-05-10T13:59:28;4.27;;;1.40;;
68680;SDS011;55836;49.858;6.756;2023-05-10T14:01:56;3.97;;;1.27;;
68680;SDS011;55836;49.858;6.756;2023-05-10T14:04:22;2.67;;;1.50;;
68680;SDS011;55836;49.858;6.756;2023-05-10T14:06:48;7.03;;;1.60;;
68680;SDS011;55836;49.858;6.756;2023-05-10T14:09:14;2.07;;;1.43;;
68680;SDS011;55836;49.858;6.756;2023-05-10T14:11:40;6.20;;;1.60;;
68680;SDS011;55836;49.858;6.756;2023-05-10T14:14:08;5.53;;;1.80;;
68680;SDS011;55836;49.858;6.756;2023-05-10T14:16:34;8.70;;;1.70;;
68680;SDS011;55836;49.858;6.756;2023-05-10T14:19:00;3.60;;;2.20;;
68680;SDS011;55836;49.858;6.756;2023-05-10T14:21:26;2.93;;;1.60;;
68680;SDS011;55836;49.858;6.756;2023-05-10T14:23:54;6.33;;;1.70;;
68680;SDS011;55836;49.858;6.756;2023-05-10T14:26:20;4.00;;;1.57;;
68680;SDS011;55836;49.858;6.756;2023-05-10T14:28:47;1.90;;;1.30;;
68680;SDS011;55836;49.858;6.756;2023-05-10T14:31:13;3.93;;;1.60;;
68680;SDS011;55836;49.858;6.756;2023-05-10T14:33:41;3.27;;;1.47;;
68680;SDS011;55836;49.858;6.756;2023-05-10T14:36:08;3.37;;;1.40;;
68680;SDS011;55836;49.858;6.756;2023-05-10T14:38:34;1.93;;;1.40;;
68680;SDS011;55836;49.858;6.756;2023-05-10T14:41:00;4.00;;;1.70;;
68680;SDS011;55836;49.858;6.756;2023-05-10T14:43:26;3.57;;;1.50;;
68680;SDS011;55836;49.858;6.756;2023-05-10T14:45:53;7.07;;;1.20;;
68680;SDS011;55836;49.858;6.756;2023-05-10T14:48:19;4.03;;;1.30;;
68680;SDS011;55836;49.858;6.756;2023-05-10T14:50:46;9.33;;;6.33;;
68680;SDS011;55836;49.858;6.756;2023-05-10T14:53:12;8.13;;;3.90;;
68680;SDS011;55836;49.858;6.756;2023-05-10T14:55:38;5.50;;;3.43;;
68680;SDS011;55836;49.858;6.756;2023-05-10T14:58:04;6.07;;;3.57;;
68680;SDS011;55836;49.858;6.756;2023-05-10T15:00:30;2.73;;;1.40;;
68680;SDS011;55836;49.858;6.756;2023-05-10T15:02:56;3.23;;;1.30;;
68680;SDS011;55836;49.858;6.756;2023-05-10T15:05:22;3.27;;;1.50;;
68680;SDS011;55836;49.858;6.756;2023-05-10T15:07:49;2.77;;;1.13;;
68680;SDS011;55836;49.858;6.756;2023-05-10T15:10:15;4.97;;;1.40;;
68680;SDS011;55836;49.858;6.756;2023-05-10T15:12:41;3.40;;;1.93;;
68680;SDS011;55836;49.858;6.756;2023-05-10T15:15:07;2.87;;;1.60;;
68680;SDS011;55836;49.858;6.756;2023-05-10T15:17:33;4.53;;;1.47;;
68680;SDS011;55836;49.858;6.756;2023-05-10T15:20:00;2.50;;;1.40;;
68680;SDS011;55836;49.858;6.756;2023-05-10T15:22:28;1.73;;;1.33;;
68680;SDS011;55836;49.858;6.756;2023-05-10T15:24:54;3.83;;;1.13;;
68680;SDS011;55836;49.858;6.756;2023-05-10T15:27:20;2.97;;;1.23;;
68680;SDS011;55836;49.858;6.756;2023-05-10T15:29:46;2.20;;;1.13;;
68680;SDS011;55836;49.858;6.756;2023-05-10T15:32:12;1.40;;;1.20;;
68680;SDS011;55836;49.858;6.756;2023-05-10T15:34:38;3.50;;;1.33;;
68680;SDS011;55836;49.858;6.756;2023-05-10T15:37:04;2.33;;;1.47;;
68680;SDS011;55836;49.858;6.756;2023-05-10T15:39:30;2.50;;;1.10;;
68680;SDS011;55836;49.858;6.756;2023-05-10T15:41:56;1.77;;;1.10;;
68680;SDS011;55836;49.858;6.756;2023-05-10T15:44:22;2.17;;;1.10;;
68680;SDS011;55836;49.858;6.756;2023-05-10T15:46:49;2.80;;;1.17;;
68680;SDS011;55836;49.858;6.756;2023-05-10T15:49:15;2.60;;;1.27;;
68680;SDS011;55836;49.858;6.756;2023-05-10T15:51:42;2.20;;;1.00;;
68680;SDS011;55836;49.858;6.756;2023-05-10T15:54:08;2.83;;;1.27;;
68680;SDS011;55836;49.858;6.756;2023-05-10T15:56:34;2.93;;;1.23;;
68680;SDS011;55836;49.858;6.756;2023-05-10T15:59:00;2.37;;;1.00;;
68680;SDS011;55836;49.858;6.756;2023-05-10T16:01:27;3.07;;;0.90;;
68680;SDS011;55836;49.858;6.756;2023-05-10T16:03:54;1.87;;;1.60;;
68680;SDS011;55836;49.858;6.756;2023-05-10T16:06:21;2.07;;;1.37;;
68680;SDS011;55836;49.858;6.756;2023-05-10T16:08:47;4.13;;;1.40;;
68680;SDS011;55836;49.858;6.756;2023-05-10T16:11:13;3.23;;;1.43;;
68680;SDS011;55836;49.858;6.756;2023-05-10T16:13:39;3.40;;;1.43;;
68680;SDS011;55836;49.858;6.756;2023-05-10T16:16:05;1.97;;;1.07;;
68680;SDS011;55836;49.858;6.756;2023-05-10T16:18:33;2.83;;;1.20;;
68680;SDS011;55836;49.858;6.756;2023-05-10T16:20:59;4.90;;;1.60;;
68680;SDS011;55836;49.858;6.756;2023-05-10T16:23:25;4.10;;;1.33;;
68680;SDS011;55836;49.858;6.756;2023-05-10T16:25:52;2.27;;;1.30;;
68680;SDS011;55836;49.858;6.756;2023-05-10T16:28:18;2.03;;;1.10;;
68680;SDS011;55836;49.858;6.756;2023-05-10T16:30:47;2.70;;;1.10;;
68680;SDS011;55836;49.858;6.756;2023-05-10T16:33:13;1.67;;;1.13;;
68680;SDS011;55836;49.858;6.756;2023-05-10T16:35:39;2.17;;;1.10;;
68680;SDS011;55836;49.858;6.756;2023-05-10T16:38:05;2.57;;;2.33;;
68680;SDS011;55836;49.858;6.756;2023-05-10T16:40:31;2.20;;;1.30;;
68680;SDS011;55836;49.858;6.756;2023-05-10T16:42:57;2.47;;;1.50;;
68680;SDS011;55836;49.858;6.756;2023-05-10T16:45:24;2.07;;;1.23;;
68680;SDS011;55836;49.858;6.756;2023-05-10T16:47:50;4.20;;;1.20;;
68680;SDS011;55836;49.858;6.756;2023-05-10T16:50:19;2.53;;;1.23;;
68680;SDS011;55836;49.858;6.756;2023-05-10T16:52:45;3.40;;;1.55;;
68680;SDS011;55836;49.858;6.756;2023-05-10T16:55:11;5.50;;;1.40;;
68680;SDS011;55836;49.858;6.756;2023-05-10T16:57:37;1.37;;;1.10;;
68680;SDS011;55836;49.858;6.756;2023-05-10T17:00:04;1.57;;;1.00;;
68680;SDS011;55836;49.858;6.756;2023-05-10T17:02:30;1.60;;;1.20;;
68680;SDS011;55836;49.858;6.756;2023-05-10T17:04:56;2.50;;;1.20;;
68680;SDS011;55836;49.858;6.756;2023-05-10T17:07:22;2.50;;;1.20;;
68680;SDS011;55836;49.858;6.756;2023-05-10T17:09:48;4.97;;;1.67;;
68680;SDS011;55836;49.858;6.756;2023-05-10T17:12:14;2.30;;;1.20;;
68680;SDS011;55836;49.858;6.756;2023-05-10T17:14:40;2.47;;;1.80;;
68680;SDS011;55836;49.858;6.756;2023-05-10T17:17:07;1.50;;;1.07;;
68680;SDS011;55836;49.858;6.756;2023-05-10T17:19:33;2.37;;;1.17;;
68680;SDS011;55836;49.858;6.756;2023-05-10T17:21:59;4.50;;;1.10;;
68680;SDS011;55836;49.858;6.756;2023-05-10T17:24:25;4.53;;;1.10;;
68680;SDS011;55836;49.858;6.756;2023-05-10T17:26:53;2.03;;;1.23;;
68680;SDS011;55836;49.858;6.756;2023-05-10T17:29:19;4.93;;;1.30;;
68680;SDS011;55836;49.858;6.756;2023-05-10T17:31:45;3.77;;;1.20;;
68680;SDS011;55836;49.858;6.756;2023-05-10T17:34:11;3.57;;;1.27;;
68680;SDS011;55836;49.858;6.756;2023-05-10T17:36:38;2.20;;;1.30;;
68680;SDS011;55836;49.858;6.756;2023-05-10T17:39:04;3.40;;;1.23;;
68680;SDS011;55836;49.858;6.756;2023-05-10T17:41:30;1.53;;;1.27;;
68680;SDS011;55836;49.858;6.756;2023-05-10T17:43:56;1.33;;;1.20;;
68680;SDS011;55836;49.858;6.756;2023-05-10T17:46:22;1.97;;;1.10;;
68680;SDS011;55836;49.858;6.756;2023-05-10T17:48:48;2.40;;;1.30;;
68680;SDS011;55836;49.858;6.756;2023-05-10T17:51:14;1.73;;;1.20;;
68680;SDS011;55836;49.858;6.756;2023-05-10T17:53:40;1.83;;;1.17;;
68680;SDS011;55836;49.858;6.756;2023-05-10T17:56:07;3.10;;;1.40;;
68680;SDS011;55836;49.858;6.756;2023-05-10T17:58:33;4.33;;;1.80;;
68680;SDS011;55836;49.858;6.756;2023-05-10T18:01:02;4.53;;;2.13;;
68680;SDS011;55836;49.858;6.756;2023-05-10T18:03:28;6.63;;;2.10;;
68680;SDS011;55836;49.858;6.756;2023-05-10T18:05:54;3.67;;;1.50;;
68680;SDS011;55836;49.858;6.756;2023-05-10T18:08:20;2.10;;;1.90;;
68680;SDS011;55836;49.858;6.756;2023-05-10T18:10:47;3.40;;;1.27;;
68680;SDS011;55836;49.858;6.756;2023-05-10T18:13:13;3.87;;;2.30;;